Camp Smith, Hawaii
Current Conditions -  °F | °C
As of 11:53 PM on Sunday 25 Jan 2015 (Local Time) from PHNL Reporting Station
Few Clouds Few Clouds  
Wind Chill: 70°   Ceiling: Unl
Heat Index: 70°   Visibility: 10mi
Dew Point: 61°   Wind: 8mph
Humidity: 73%   Direction: 30°NNE
Pressure: 29.99"   Gusts: NA
Location:  21.3902°N, 157.908°W
Report Text: PHNL 260953Z 03007KT 10SM FEW030 21/16 A2999 RMK AO2 SLP155 T02110161 402500194
Loading
Personal Weather Stations






























Interactive Weather Map New forecast layout! Learn more

10-Day Weather Forecast

Advertisements
Track Severe Weather on mobile